Time;durP1;ratioP1;P1;durP2;ratioP2;P2;SDS_P1;SDS_P2;PMS_P1;PMS_P2;Temp;Humidity;BMP_temperature;BMP_pressure;BME280_temperature;BME280_humidity;BME280_pressure;Samples;Min_cycle;Max_cycle;Signal;HPM_P1;HPM_P2
2022/06/07 00:02:02;;;;;;;5.18;2.50;;;;;;;;;;5016184;28;20479;-75
2022/06/07 00:04:27;;;;;;;3.00;2.47;;;;;;;;;;5016479;28;20403;-75
2022/06/07 00:06:53;;;;;;;5.13;2.87;;;;;;;;;;4998739;28;20018;-74
2022/06/07 00:09:18;;;;;;;3.43;2.40;;;;;;;;;;5016174;28;20736;-75
2022/06/07 00:11:46;;;;;;;3.33;2.37;;;;;;;;;;5016323;28;20759;-74
2022/06/07 00:14:11;;;;;;;5.00;2.60;;;;;;;;;;4998414;28;20260;-75
2022/06/07 00:16:36;;;;;;;4.45;2.50;;;;;;;;;;5015951;28;20402;-75
2022/06/07 00:19:02;;;;;;;2.70;2.13;;;;;;;;;;5016503;28;20030;-74
2022/06/07 00:21:29;;;;;;;3.90;2.60;;;;;;;;;;5015792;28;20259;-75
2022/06/07 00:23:55;;;;;;;2.97;2.40;;;;;;;;;;5015912;28;20026;-75
2022/06/07 00:26:20;;;;;;;3.55;2.40;;;;;;;;;;5015842;28;20026;-75
2022/06/07 00:28:45;;;;;;;3.17;2.58;;;;;;;;;;5015858;28;20018;-75
2022/06/07 00:31:11;;;;;;;8.37;2.60;;;;;;;;;;5015792;28;20029;-75
2022/06/07 00:33:36;;;;;;;4.82;2.25;;;;;;;;;;4997929;28;20811;-75
2022/06/07 00:36:02;;;;;;;4.70;2.27;;;;;;;;;;5015718;28;20022;-75
2022/06/07 00:38:27;;;;;;;3.28;2.40;;;;;;;;;;5015933;28;20317;-74
2022/06/07 00:40:53;;;;;;;3.67;2.58;;;;;;;;;;5015659;28;20022;-75
2022/06/07 00:43:22;;;;;;;4.03;2.35;;;;;;;;;;5015470;28;20041;-76
2022/06/07 00:45:47;;;;;;;3.45;2.47;;;;;;;;;;5015752;28;20037;-76
2022/06/07 00:48:12;;;;;;;5.23;2.50;;;;;;;;;;4997892;28;20120;-75
2022/06/07 00:51:10;;;;;;;3.53;2.60;;;;;;;;;;5015440;28;20345;-74
2022/06/07 00:53:36;;;;;;;10.07;2.65;;;;;;;;;;5014587;28;20274;-75
2022/06/07 00:56:03;;;;;;;3.10;2.33;;;;;;;;;;4997676;28;20030;-76
2022/06/07 00:58:30;;;;;;;3.78;2.60;;;;;;;;;;4997508;28;20026;-74
2022/06/07 01:00:56;;;;;;;4.28;2.55;;;;;;;;;;5015309;28;20045;-75
2022/06/07 01:03:22;;;;;;;4.72;2.65;;;;;;;;;;5015233;28;20025;-72
2022/06/07 01:05:52;;;;;;;5.88;2.53;;;;;;;;;;4998311;28;20017;-76
2022/06/07 01:11:03;;;;;;;5.25;2.53;;;;;;;;;;5015326;28;20133;-76
2022/06/07 01:13:32;;;;;;;3.30;2.55;;;;;;;;;;5015012;28;20026;-75
2022/06/07 01:16:07;;;;;;;5.47;2.90;;;;;;;;;;5014684;28;20029;-75
2022/06/07 01:18:33;;;;;;;4.68;2.58;;;;;;;;;;5014818;28;20095;-74
2022/06/07 01:21:30;;;;;;;7.57;3.05;;;;;;;;;;5014987;28;20026;-75
2022/06/07 01:23:55;;;;;;;3.97;2.65;;;;;;;;;;4994873;28;20406;-75
2022/06/07 01:26:21;;;;;;;6.60;2.78;;;;;;;;;;4997124;28;20018;-75
2022/06/07 01:28:46;;;;;;;4.53;2.58;;;;;;;;;;4997078;28;20025;-74
2022/06/07 01:31:12;;;;;;;4.63;2.40;;;;;;;;;;5014754;28;20032;-75
2022/06/07 01:33:37;;;;;;;2.60;2.30;;;;;;;;;;5014280;28;20495;-74
2022/06/07 01:36:08;;;;;;;2.92;2.58;;;;;;;;;;5014263;28;20636;-76
2022/06/07 01:38:35;;;;;;;4.78;2.47;;;;;;;;;;5014575;28;20080;-76
2022/06/07 01:43:48;;;;;;;3.20;2.60;;;;;;;;;;5014702;28;20049;-75
2022/06/07 01:46:13;;;;;;;6.88;2.70;;;;;;;;;;5014710;28;20040;-75
2022/06/07 01:48:38;;;;;;;4.05;2.75;;;;;;;;;;5014247;28;20034;-74
2022/06/07 01:51:06;;;;;;;4.83;3.27;;;;;;;;;;5014181;28;20056;-74
2022/06/07 01:53:32;;;;;;;3.28;2.67;;;;;;;;;;5014186;28;20359;-75
2022/06/07 01:56:06;;;;;;;6.82;2.55;;;;;;;;;;5014130;28;20061;-73
2022/06/07 01:58:32;;;;;;;3.70;2.70;;;;;;;;;;4996378;28;20025;-76
2022/06/07 02:01:00;;;;;;;3.28;2.88;;;;;;;;;;5013990;28;20108;-75
2022/06/07 02:03:26;;;;;;;5.47;2.88;;;;;;;;;;5014945;28;20057;-74
2022/06/07 02:06:00;;;;;;;4.35;2.97;;;;;;;;;;5015988;28;20022;-75
2022/06/07 02:08:26;;;;;;;4.75;2.72;;;;;;;;;;5016388;28;20037;-74
2022/06/07 02:10:52;;;;;;;5.80;3.35;;;;;;;;;;5015854;28;20091;-75
2022/06/07 02:13:19;;;;;;;4.80;2.90;;;;;;;;;;5015755;28;20033;-75
2022/06/07 02:15:44;;;;;;;5.28;3.60;;;;;;;;;;5015924;28;20383;-74
2022/06/07 02:18:10;;;;;;;3.95;3.17;;;;;;;;;;5015588;28;20025;-74
2022/06/07 02:20:35;;;;;;;5.55;2.97;;;;;;;;;;5015265;28;20045;-74
2022/06/07 02:23:02;;;;;;;6.27;3.00;;;;;;;;;;4997693;28;20360;-75
2022/06/07 02:25:28;;;;;;;4.78;3.20;;;;;;;;;;5015533;28;20263;-75
2022/06/07 02:27:54;;;;;;;4.95;3.03;;;;;;;;;;5015408;28;20057;-74
2022/06/07 02:30:19;;;;;;;5.40;2.80;;;;;;;;;;5014921;28;20030;-75
2022/06/07 02:32:44;;;;;;;4.43;2.90;;;;;;;;;;5013364;28;20041;-75
2022/06/07 02:35:10;;;;;;;4.53;2.92;;;;;;;;;;5013700;28;20418;-76
2022/06/07 02:37:37;;;;;;;3.78;2.80;;;;;;;;;;5013506;28;20029;-75
2022/06/07 02:40:03;;;;;;;5.28;3.33;;;;;;;;;;4995831;28;20022;-74
2022/06/07 02:42:29;;;;;;;6.00;3.13;;;;;;;;;;5013263;28;20116;-75
2022/06/07 02:44:57;;;;;;;5.63;3.13;;;;;;;;;;4995729;28;20034;-75
2022/06/07 02:47:22;;;;;;;4.75;3.03;;;;;;;;;;4994613;28;20087;-76
2022/06/07 02:49:48;;;;;;;5.28;3.90;;;;;;;;;;5013282;28;20038;-76
2022/06/07 02:52:13;;;;;;;13.82;9.38;;;;;;;;;;5013755;28;20379;-75
2022/06/07 02:54:39;;;;;;;16.15;9.50;;;;;;;;;;5013568;28;20042;-75
2022/06/07 02:57:05;;;;;;;13.80;9.10;;;;;;;;;;5013132;28;20116;-76
2022/06/07 02:59:30;;;;;;;10.60;7.28;;;;;;;;;;5013253;28;20259;-76
2022/06/07 03:01:55;;;;;;;7.22;4.20;;;;;;;;;;5013064;28;20109;-76
2022/06/07 03:04:21;;;;;;;6.67;3.70;;;;;;;;;;5013468;28;20056;-75
2022/06/07 03:06:46;;;;;;;9.75;4.70;;;;;;;;;;5013455;28;20251;-75
2022/06/07 03:09:11;;;;;;;3.42;2.90;;;;;;;;;;5013490;28;20053;-76
2022/06/07 03:11:37;;;;;;;5.70;3.13;;;;;;;;;;5013018;28;20084;-74
2022/06/07 03:14:02;;;;;;;5.65;2.70;;;;;;;;;;4995561;28;20271;-74
2022/06/07 03:16:28;;;;;;;5.22;3.40;;;;;;;;;;5013078;28;20479;-75
2022/06/07 03:18:53;;;;;;;3.83;2.63;;;;;;;;;;5013312;28;20077;-74
2022/06/07 03:21:18;;;;;;;4.75;3.28;;;;;;;;;;4996119;28;20378;-75
2022/06/07 03:23:43;;;;;;;3.33;2.90;;;;;;;;;;5012856;28;20029;-77
2022/06/07 03:26:11;;;;;;;2.80;2.50;;;;;;;;;;5012916;28;20270;-75
2022/06/07 03:28:37;;;;;;;5.43;3.10;;;;;;;;;;5012945;28;20032;-75
2022/06/07 03:31:08;;;;;;;5.63;3.15;;;;;;;;;;5012864;28;20026;-75
2022/06/07 03:33:33;;;;;;;3.83;3.05;;;;;;;;;;5012854;28;20125;-76
2022/06/07 03:36:11;;;;;;;4.97;2.70;;;;;;;;;;5012774;28;20101;-75
2022/06/07 03:38:37;;;;;;;6.57;3.22;;;;;;;;;;5013247;28;20030;-74
2022/06/07 03:41:02;;;;;;;4.75;3.00;;;;;;;;;;5012873;28;20026;-76
2022/06/07 03:43:27;;;;;;;3.53;2.78;;;;;;;;;;5013079;28;20468;-75
2022/06/07 03:45:53;;;;;;;8.93;3.00;;;;;;;;;;5012806;28;20024;-75
2022/06/07 03:48:18;;;;;;;3.22;2.88;;;;;;;;;;4995215;28;20017;-76
2022/06/07 03:50:43;;;;;;;3.40;2.90;;;;;;;;;;5012854;28;20022;-76
2022/06/07 03:53:08;;;;;;;3.35;2.80;;;;;;;;;;5012690;28;20334;-75
2022/06/07 03:55:35;;;;;;;7.83;3.33;;;;;;;;;;5012635;28;20117;-75
2022/06/07 03:58:00;;;;;;;5.40;3.08;;;;;;;;;;5014594;28;20259;-75
2022/06/07 04:00:25;;;;;;;5.83;2.90;;;;;;;;;;5016234;28;20084;-76
2022/06/07 04:02:50;;;;;;;4.80;3.13;;;;;;;;;;5016132;28;20309;-74
2022/06/07 04:05:16;;;;;;;4.28;2.90;;;;;;;;;;5016989;28;20275;-76
2022/06/07 04:10:25;;;;;;;3.65;2.67;;;;;;;;;;5016269;28;20033;-76
2022/06/07 04:12:50;;;;;;;3.43;2.70;;;;;;;;;;5016048;28;20434;-74
2022/06/07 04:15:16;;;;;;;3.80;3.00;;;;;;;;;;5015875;28;20584;-75
2022/06/07 04:17:41;;;;;;;4.40;2.78;;;;;;;;;;5015966;28;20318;-76
2022/06/07 04:20:07;;;;;;;3.77;2.80;;;;;;;;;;5015919;28;20571;-76
2022/06/07 04:22:32;;;;;;;6.88;3.30;;;;;;;;;;5015724;28;20361;-76
2022/06/07 04:24:57;;;;;;;3.57;2.87;;;;;;;;;;5015812;28;20025;-74
2022/06/07 04:27:23;;;;;;;5.13;3.10;;;;;;;;;;5016103;28;20729;-76
2022/06/07 04:29:48;;;;;;;3.50;2.90;;;;;;;;;;5016313;28;20064;-74
2022/06/07 04:32:13;;;;;;;6.33;3.00;;;;;;;;;;5015641;28;20267;-75
2022/06/07 04:34:39;;;;;;;6.63;2.88;;;;;;;;;;5015732;28;20258;-76
2022/06/07 04:37:05;;;;;;;5.68;3.10;;;;;;;;;;4997916;28;20032;-76
2022/06/07 04:39:30;;;;;;;4.30;2.85;;;;;;;;;;5015561;28;20026;-74
2022/06/07 04:41:57;;;;;;;4.38;2.88;;;;;;;;;;5015466;28;20022;-76
2022/06/07 04:44:22;;;;;;;3.53;2.95;;;;;;;;;;5015391;28;20049;-74
2022/06/07 04:46:48;;;;;;;6.22;3.15;;;;;;;;;;5015340;28;20057;-75
2022/06/07 04:49:13;;;;;;;5.35;2.85;;;;;;;;;;5015306;28;20454;-74
2022/06/07 04:51:39;;;;;;;5.80;3.20;;;;;;;;;;5015237;28;21349;-75
2022/06/07 04:54:05;;;;;;;5.07;2.70;;;;;;;;;;5015215;28;20294;-75
2022/06/07 04:56:35;;;;;;;5.28;2.80;;;;;;;;;;5015166;28;20057;-74
2022/06/07 04:59:02;;;;;;;3.15;2.63;;;;;;;;;;5015135;28;20478;-75
2022/06/07 05:01:34;;;;;;;4.07;2.72;;;;;;;;;;5015011;28;20032;-74
2022/06/07 05:03:59;;;;;;;6.30;2.47;;;;;;;;;;5015291;28;20425;-74
2022/06/07 05:06:28;;;;;;;3.53;2.58;;;;;;;;;;5014940;28;20029;-74
2022/06/07 05:09:17;;;;;;;11.30;2.92;;;;;;;;;;5014285;28;20029;-74
2022/06/07 05:11:46;;;;;;;3.90;2.45;;;;;;;;;;5014913;28;20030;-74
2022/06/07 05:14:11;;;;;;;3.22;2.60;;;;;;;;;;5015090;28;20388;-75
2022/06/07 05:16:38;;;;;;;5.50;2.42;;;;;;;;;;5014657;28;20037;-74
2022/06/07 05:19:03;;;;;;;4.95;3.00;;;;;;;;;;5015139;28;20057;-75
2022/06/07 05:21:28;;;;;;;3.70;2.63;;;;;;;;;;5014796;28;20505;-74
2022/06/07 05:23:54;;;;;;;4.35;3.00;;;;;;;;;;5014903;28;20109;-75
2022/06/07 05:26:23;;;;;;;3.53;2.55;;;;;;;;;;5014679;28;20050;-74
2022/06/07 05:28:49;;;;;;;7.53;3.10;;;;;;;;;;4997054;28;20030;-74
2022/06/07 05:31:14;;;;;;;5.05;2.90;;;;;;;;;;5014575;28;20495;-74
2022/06/07 05:33:40;;;;;;;4.43;2.72;;;;;;;;;;5014349;28;20030;-74
2022/06/07 05:36:06;;;;;;;3.47;2.43;;;;;;;;;;5014338;28;20475;-74
2022/06/07 05:38:31;;;;;;;7.47;2.85;;;;;;;;;;5014432;28;20260;-75
2022/06/07 05:40:56;;;;;;;3.42;2.72;;;;;;;;;;4996793;28;20037;-75
2022/06/07 05:43:22;;;;;;;2.83;2.47;;;;;;;;;;5014363;28;20018;-75
2022/06/07 05:45:48;;;;;;;3.75;2.70;;;;;;;;;;5014447;28;20026;-76
2022/06/07 05:48:14;;;;;;;5.88;3.00;;;;;;;;;;4996692;28;20116;-75
2022/06/07 05:50:39;;;;;;;3.70;2.72;;;;;;;;;;5014704;28;20112;-75
2022/06/07 05:53:04;;;;;;;6.78;2.67;;;;;;;;;;5014192;28;20025;-75
2022/06/07 05:55:30;;;;;;;2.78;2.50;;;;;;;;;;5014132;28;20026;-75
2022/06/07 05:57:55;;;;;;;3.63;2.63;;;;;;;;;;4996516;28;20511;-75
2022/06/07 06:00:21;;;;;;;4.83;2.50;;;;;;;;;;5014471;28;20712;-75
2022/06/07 06:02:47;;;;;;;5.72;3.10;;;;;;;;;;5013799;28;20280;-75
2022/06/07 06:05:13;;;;;;;4.28;2.70;;;;;;;;;;5013991;28;20471;-75
2022/06/07 06:10:19;;;;;;;13.95;3.10;;;;;;;;;;5014088;28;20018;-75
2022/06/07 06:10:24;;;;;;;4.50;2.92;;;;;;;;;;5013982;28;20033;-75
2022/06/07 06:12:49;;;;;;;3.63;3.10;;;;;;;;;;5013635;28;20033;-76
2022/06/07 06:15:15;;;;;;;6.78;2.90;;;;;;;;;;5013903;28;20072;-76
2022/06/07 06:17:40;;;;;;;5.03;3.00;;;;;;;;;;5013692;28;20488;-75
2022/06/07 06:20:07;;;;;;;5.63;2.70;;;;;;;;;;5013556;28;20080;-76
2022/06/07 06:22:34;;;;;;;10.68;3.08;;;;;;;;;;5013489;28;20038;-75
2022/06/07 06:24:59;;;;;;;4.47;2.90;;;;;;;;;;5013599;28;20028;-76
2022/06/07 06:27:25;;;;;;;3.33;2.63;;;;;;;;;;5013550;28;20033;-76
2022/06/07 06:29:50;;;;;;;6.07;2.78;;;;;;;;;;5013758;28;20260;-75
2022/06/07 06:32:16;;;;;;;3.57;2.60;;;;;;;;;;4995455;28;20034;-74
2022/06/07 06:34:41;;;;;;;3.70;3.17;;;;;;;;;;5013912;28;20242;-76
2022/06/07 06:37:06;;;;;;;5.57;3.00;;;;;;;;;;5013833;28;20537;-75
2022/06/07 06:39:32;;;;;;;13.23;3.03;;;;;;;;;;5013320;28;20728;-75
2022/06/07 06:41:57;;;;;;;3.75;2.80;;;;;;;;;;5013512;28;20037;-75
2022/06/07 06:44:22;;;;;;;9.88;3.22;;;;;;;;;;4995418;28;20030;-75
2022/06/07 06:46:48;;;;;;;7.43;2.85;;;;;;;;;;5013330;28;20056;-75
2022/06/07 06:49:14;;;;;;;4.72;2.72;;;;;;;;;;5013270;28;20055;-75
2022/06/07 06:51:41;;;;;;;6.70;3.00;;;;;;;;;;5013505;28;20104;-75
2022/06/07 06:54:09;;;;;;;5.10;2.92;;;;;;;;;;4995534;28;20026;-75
2022/06/07 06:56:35;;;;;;;4.55;2.83;;;;;;;;;;5013256;28;20066;-74
2022/06/07 06:59:00;;;;;;;4.80;2.83;;;;;;;;;;5012961;28;20029;-75
2022/06/07 07:01:30;;;;;;;5.07;2.90;;;;;;;;;;5012951;28;20550;-75
2022/06/07 07:03:55;;;;;;;7.53;3.10;;;;;;;;;;5013261;28;20022;-74
2022/06/07 07:06:21;;;;;;;4.90;2.97;;;;;;;;;;4995515;28;20029;-75
2022/06/07 07:08:48;;;;;;;5.25;3.00;;;;;;;;;;4995561;28;20026;-75
2022/06/07 07:11:17;;;;;;;7.22;3.00;;;;;;;;;;5013171;28;20061;-75
2022/06/07 07:13:43;;;;;;;4.68;3.10;;;;;;;;;;5013170;28;20029;-74
2022/06/07 07:16:11;;;;;;;5.55;2.67;;;;;;;;;;5012845;28;20088;-74
2022/06/07 07:18:38;;;;;;;3.35;2.75;;;;;;;;;;5013030;28;20030;-75
2022/06/07 07:21:06;;;;;;;8.48;2.70;;;;;;;;;;5013256;28;20024;-76
2022/06/07 07:23:32;;;;;;;5.35;2.75;;;;;;;;;;5013097;28;20481;-75
2022/06/07 07:26:08;;;;;;;5.82;2.70;;;;;;;;;;4995334;28;20030;-76
2022/06/07 07:28:34;;;;;;;4.28;2.80;;;;;;;;;;5013214;28;20026;-75
2022/06/07 07:31:01;;;;;;;5.03;2.83;;;;;;;;;;5012848;28;20033;-75
2022/06/07 07:33:27;;;;;;;6.00;2.83;;;;;;;;;;4997573;28;20128;-75
2022/06/07 07:35:52;;;;;;;8.43;3.50;;;;;;;;;;5016912;28;20048;-75
2022/06/07 07:38:19;;;;;;;5.43;2.70;;;;;;;;;;5016989;28;20151;-76
2022/06/07 07:40:44;;;;;;;4.65;2.70;;;;;;;;;;5016813;28;20022;-75
2022/06/07 07:43:09;;;;;;;3.97;2.80;;;;;;;;;;5016476;28;20042;-76
2022/06/07 07:45:35;;;;;;;4.63;2.60;;;;;;;;;;5016926;28;20018;-76
2022/06/07 07:48:01;;;;;;;4.25;2.85;;;;;;;;;;5016532;28;20329;-76
2022/06/07 07:50:26;;;;;;;6.50;2.60;;;;;;;;;;5016617;28;20077;-74
2022/06/07 07:52:51;;;;;;;4.22;2.78;;;;;;;;;;5016381;28;20022;-75
2022/06/07 07:55:16;;;;;;;9.75;2.72;;;;;;;;;;4998753;28;20034;-75
2022/06/07 07:57:42;;;;;;;4.63;3.00;;;;;;;;;;5016365;28;20021;-75
2022/06/07 08:00:09;;;;;;;6.28;2.97;;;;;;;;;;5016327;28;20413;-76
2022/06/07 08:02:34;;;;;;;4.90;2.83;;;;;;;;;;4998605;28;20026;-75
2022/06/07 08:04:59;;;;;;;9.25;2.90;;;;;;;;;;4999281;28;20057;-75
2022/06/07 08:07:24;;;;;;;6.27;3.00;;;;;;;;;;5016138;28;20096;-75
2022/06/07 08:09:50;;;;;;;3.95;2.70;;;;;;;;;;5016364;28;20617;-75
2022/06/07 08:12:15;;;;;;;4.60;2.87;;;;;;;;;;4998359;28;20029;-74
2022/06/07 08:14:40;;;;;;;5.82;2.72;;;;;;;;;;5016057;28;20339;-76
2022/06/07 08:17:05;;;;;;;5.00;2.83;;;;;;;;;;5016277;28;20029;-75
2022/06/07 08:19:31;;;;;;;3.83;2.70;;;;;;;;;;5016153;28;20371;-76
2022/06/07 08:21:56;;;;;;;6.23;2.50;;;;;;;;;;5016072;28;20667;-75
2022/06/07 08:24:21;;;;;;;5.55;2.40;;;;;;;;;;5016139;28;20278;-74
2022/06/07 08:26:48;;;;;;;4.43;2.90;;;;;;;;;;4998230;28;20045;-75
2022/06/07 08:29:14;;;;;;;5.72;3.05;;;;;;;;;;5015711;28;20287;-76
2022/06/07 08:31:40;;;;;;;4.25;2.70;;;;;;;;;;4998007;28;20546;-74
2022/06/07 08:39:35;;;;;;;6.25;2.10;;;;;;;;;;5016145;28;20063;-75
2022/06/07 08:42:13;;;;;;;4.03;1.92;;;;;;;;;;5015248;28;20549;-75
2022/06/07 08:44:47;;;;;;;3.13;2.20;;;;;;;;;;5014749;28;20463;-76
2022/06/07 08:47:24;;;;;;;6.53;1.75;;;;;;;;;;4998119;28;20383;-75
2022/06/07 08:49:55;;;;;;;3.85;1.83;;;;;;;;;;5015706;28;20101;-76
2022/06/07 08:52:35;;;;;;;3.78;1.90;;;;;;;;;;5015480;28;20034;-75
2022/06/07 08:55:11;;;;;;;5.43;2.25;;;;;;;;;;4997681;28;20032;-76
2022/06/07 08:57:37;;;;;;;3.22;2.03;;;;;;;;;;5015157;28;20030;-75
2022/06/07 09:00:17;;;;;;;3.25;2.00;;;;;;;;;;5015147;28;20099;-76
2022/06/07 09:02:48;;;;;;;3.60;2.13;;;;;;;;;;5015014;28;20033;-75
2022/06/07 09:05:16;;;;;;;5.05;2.50;;;;;;;;;;4997669;28;20036;-74
2022/06/07 09:07:42;;;;;;;4.05;2.53;;;;;;;;;;5015123;28;20498;-75
2022/06/07 09:13:05;;;;;;;4.80;2.67;;;;;;;;;;5014979;28;20081;-74
2022/06/07 09:15:34;;;;;;;4.63;2.72;;;;;;;;;;4997292;28;20052;-74
2022/06/07 09:18:03;;;;;;;7.25;3.03;;;;;;;;;;4997502;28;20050;-78
2022/06/07 09:20:38;;;;;;;4.82;2.60;;;;;;;;;;5015134;28;20026;-75
2022/06/07 09:23:14;;;;;;;4.82;2.47;;;;;;;;;;4997169;28;20026;-74
2022/06/07 09:25:48;;;;;;;5.15;2.50;;;;;;;;;;4997529;28;20062;-73
2022/06/07 09:28:18;;;;;;;4.28;2.53;;;;;;;;;;5015058;28;20454;-73
2022/06/07 09:30:48;;;;;;;3.55;2.20;;;;;;;;;;5015186;28;20033;-73
2022/06/07 09:33:24;;;;;;;6.82;1.98;;;;;;;;;;5014620;28;20582;-73
2022/06/07 09:35:52;;;;;;;4.32;1.95;;;;;;;;;;5014611;28;20032;-72
2022/06/07 09:38:31;;;;;;;2.95;2.05;;;;;;;;;;5014978;28;20422;-72
2022/06/07 09:41:05;;;;;;;3.88;2.10;;;;;;;;;;5014675;28;20033;-72
2022/06/07 09:43:39;;;;;;;;;;;;;;;;;;5014851;28;20113;-72
2022/06/07 09:46:11;;;;;;;6.10;1.90;;;;;;;;;;5014544;28;19926;-74
2022/06/07 09:48:42;;;;;;;4.25;1.80;;;;;;;;;;5014531;28;20506;-73
2022/06/07 09:51:18;;;;;;;3.17;1.80;;;;;;;;;;4996553;28;20044;-73
2022/06/07 09:53:56;;;;;;;3.65;1.90;;;;;;;;;;5014480;28;20479;-72
2022/06/07 09:56:41;;;;;;;7.20;1.90;;;;;;;;;;5013724;28;20029;-73
2022/06/07 09:59:36;;;;;;;6.32;2.97;;;;;;;;;;5014460;28;20029;-73
2022/06/07 10:02:11;;;;;;;4.97;1.75;;;;;;;;;;5014038;28;20036;-72
2022/06/07 10:04:45;;;;;;;5.57;1.75;;;;;;;;;;5014226;28;20076;-72
2022/06/07 10:07:17;;;;;;;2.33;1.50;;;;;;;;;;5014296;28;20022;-73
2022/06/07 10:10:08;;;;;;;3.10;1.70;;;;;;;;;;5014107;28;20030;-72
2022/06/07 10:12:43;;;;;;;2.03;1.48;;;;;;;;;;5014228;28;20129;-74
2022/06/07 10:15:43;;;;;;;4.80;1.70;;;;;;;;;;5014076;28;20042;-71
2022/06/07 10:18:38;;;;;;;6.43;1.63;;;;;;;;;;5013758;28;20491;-74
2022/06/07 10:21:09;;;;;;;3.90;1.30;;;;;;;;;;5014000;28;20390;-72
2022/06/07 10:23:58;;;;;;;3.03;1.40;;;;;;;;;;5013623;28;20061;-72
2022/06/07 10:26:47;;;;;;;4.00;1.30;;;;;;;;;;5014027;28;20360;-73
2022/06/07 10:29:21;;;;;;;2.15;1.20;;;;;;;;;;5013860;28;20048;-72
2022/06/07 10:31:51;;;;;;;2.95;1.15;;;;;;;;;;5013692;28;20076;-72
2022/06/07 10:34:37;;;;;;;1.90;1.30;;;;;;;;;;4996413;28;20102;-73
2022/06/07 10:37:23;;;;;;;2.70;1.27;;;;;;;;;;5013662;28;20032;-73
2022/06/07 10:40:06;;;;;;;3.17;1.20;;;;;;;;;;5013633;28;20120;-73
2022/06/07 10:42:44;;;;;;;5.33;1.50;;;;;;;;;;5013506;28;20037;-72
2022/06/07 10:45:20;;;;;;;2.95;1.23;;;;;;;;;;5013733;28;20354;-73
2022/06/07 10:47:54;;;;;;;2.28;1.13;;;;;;;;;;5013328;28;20030;-73
2022/06/07 10:50:25;;;;;;;2.90;1.20;;;;;;;;;;5013597;28;20165;-72
2022/06/07 10:52:59;;;;;;;2.13;1.20;;;;;;;;;;5013252;28;20578;-72
2022/06/07 10:55:59;;;;;;;2.67;1.30;;;;;;;;;;5013271;28;20393;-73
2022/06/07 10:58:31;;;;;;;3.38;1.10;;;;;;;;;;4995647;28;20032;-72
2022/06/07 11:01:04;;;;;;;7.32;1.30;;;;;;;;;;4995750;28;20025;-73
2022/06/07 11:03:38;;;;;;;2.25;1.20;;;;;;;;;;5013224;28;20050;-72
2022/06/07 11:09:19;;;;;;;1.83;1.10;;;;;;;;;;5016916;28;20068;-72
2022/06/07 11:11:46;;;;;;;2.30;0.90;;;;;;;;;;5016991;28;20025;-72
2022/06/07 11:14:37;;;;;;;1.08;0.90;;;;;;;;;;5017353;28;20018;-72
2022/06/07 11:17:28;;;;;;;2.90;1.10;;;;;;;;;;5017285;28;20162;-73
2022/06/07 11:19:54;;;;;;;2.88;1.20;;;;;;;;;;5017032;28;20479;-73
2022/06/07 11:22:22;;;;;;;1.83;1.10;;;;;;;;;;5016748;28;20079;-71
2022/06/07 11:25:18;;;;;;;1.20;1.00;;;;;;;;;;5016862;28;20506;-73
2022/06/07 11:27:52;;;;;;;2.42;1.23;;;;;;;;;;5017414;28;20084;-72
2022/06/07 11:30:37;;;;;;;2.17;1.10;;;;;;;;;;5017064;28;20388;-73
2022/06/07 11:33:25;;;;;;;1.90;1.20;;;;;;;;;;5016700;28;20121;-72
2022/06/07 11:36:03;;;;;;;2.38;1.15;;;;;;;;;;5016282;28;20045;-72
2022/06/07 11:38:32;;;;;;;3.03;1.10;;;;;;;;;;4999472;28;20033;-72
2022/06/07 11:41:39;;;;;;;1.55;1.13;;;;;;;;;;5016613;28;20097;-72
2022/06/07 11:44:10;;;;;;;6.75;1.20;;;;;;;;;;5013815;28;20120;-72
2022/06/07 11:46:35;;;;;;;6.22;1.27;;;;;;;;;;5016429;28;20018;-72
2022/06/07 11:49:22;;;;;;;3.20;1.00;;;;;;;;;;5016487;28;20028;-73
2022/06/07 11:52:02;;;;;;;3.83;1.40;;;;;;;;;;4998760;28;20384;-72
2022/06/07 11:54:34;;;;;;;3.10;1.33;;;;;;;;;;5016629;28;20034;-72
2022/06/07 11:57:15;;;;;;;4.50;1.35;;;;;;;;;;5016575;28;20029;-72
2022/06/07 11:59:52;;;;;;;3.70;1.40;;;;;;;;;;5016785;28;20113;-72
2022/06/07 12:02:17;;;;;;;4.15;1.30;;;;;;;;;;5016275;28;20037;-72
2022/06/07 12:04:45;;;;;;;1.38;1.15;;;;;;;;;;5016101;28;20038;-72
2022/06/07 12:07:27;;;;;;;4.07;1.10;;;;;;;;;;5016465;28;20101;-71
2022/06/07 12:09:59;;;;;;;3.65;1.55;;;;;;;;;;4998581;28;20029;-73
2022/06/07 12:12:34;;;;;;;4.38;1.20;;;;;;;;;;5015980;28;20037;-73
2022/06/07 12:15:17;;;;;;;3.15;1.15;;;;;;;;;;5016459;28;20120;-72
2022/06/07 12:17:58;;;;;;;1.42;1.08;;;;;;;;;;5016058;28;20102;-73
2022/06/07 12:20:37;;;;;;;3.42;1.50;;;;;;;;;;5016214;28;20101;-72
2022/06/07 12:23:14;;;;;;;2.47;1.20;;;;;;;;;;5015766;28;20026;-72
2022/06/07 12:25:39;;;;;;;1.75;1.20;;;;;;;;;;5016007;28;20018;-73
2022/06/07 12:28:05;;;;;;;2.70;1.30;;;;;;;;;;5015827;28;20394;-72
2022/06/07 12:30:36;;;;;;;2.35;1.20;;;;;;;;;;4998099;28;20343;-74
2022/06/07 12:33:31;;;;;;;2.33;1.15;;;;;;;;;;5015623;28;20034;-72
2022/06/07 12:36:05;;;;;;;1.40;1.20;;;;;;;;;;5015951;28;20076;-72
2022/06/07 12:38:31;;;;;;;;;;;;;;;;;;5015913;28;20022;-72
2022/06/07 12:41:01;;;;;;;2.20;1.27;;;;;;;;;;5015655;28;19909;-72
2022/06/07 12:43:31;;;;;;;3.15;1.05;;;;;;;;;;5015725;28;20394;-72
2022/06/07 12:46:04;;;;;;;4.55;1.20;;;;;;;;;;4997897;28;20073;-72
2022/06/07 12:48:38;;;;;;;1.42;1.05;;;;;;;;;;5015792;28;20049;-72
2022/06/07 12:51:39;;;;;;;1.08;1.00;;;;;;;;;;5015709;28;20083;-73
2022/06/07 12:54:20;;;;;;;2.53;1.23;;;;;;;;;;5015743;28;20390;-74
2022/06/07 12:56:46;;;;;;;2.22;1.30;;;;;;;;;;5015119;28;20030;-72
2022/06/07 12:59:31;;;;;;;5.03;1.30;;;;;;;;;;5015131;28;20026;-73
2022/06/07 13:01:57;;;;;;;2.97;1.20;;;;;;;;;;5015240;28;20030;-73
2022/06/07 13:04:45;;;;;;;1.88;1.15;;;;;;;;;;5015029;28;20026;-73
2022/06/07 13:07:16;;;;;;;2.38;1.40;;;;;;;;;;5015002;28;20084;-73
2022/06/07 13:09:45;;;;;;;1.65;1.00;;;;;;;;;;5015231;28;20030;-72
2022/06/07 13:12:17;;;;;;;2.03;1.20;;;;;;;;;;5014987;28;20018;-72
2022/06/07 13:14:43;;;;;;;2.17;1.20;;;;;;;;;;5015215;28;20026;-73
2022/06/07 13:17:28;;;;;;;3.03;1.25;;;;;;;;;;5014835;28;20051;-72
2022/06/07 13:19:54;;;;;;;2.53;1.13;;;;;;;;;;5014823;28;20072;-72
2022/06/07 13:22:21;;;;;;;1.85;1.15;;;;;;;;;;5014817;28;20479;-72
2022/06/07 13:24:48;;;;;;;2.35;1.05;;;;;;;;;;5014779;28;20079;-73
2022/06/07 13:27:32;;;;;;;4.13;1.42;;;;;;;;;;5014735;28;20029;-75
2022/06/07 13:29:59;;;;;;;2.47;1.10;;;;;;;;;;5014022;28;20080;-72
2022/06/07 13:32:27;;;;;;;2.25;1.15;;;;;;;;;;5014308;28;20029;-73
2022/06/07 13:34:55;;;;;;;2.72;1.00;;;;;;;;;;5014886;28;20112;-73
2022/06/07 13:37:23;;;;;;;2.28;1.25;;;;;;;;;;5014165;28;20034;-72
2022/06/07 13:40:09;;;;;;;2.67;1.27;;;;;;;;;;5014459;28;20038;-72
2022/06/07 13:42:39;;;;;;;2.00;1.00;;;;;;;;;;5014641;28;20387;-72
2022/06/07 13:45:13;;;;;;;4.72;1.10;;;;;;;;;;5014477;28;20497;-72
2022/06/07 13:47:38;;;;;;;3.58;1.02;;;;;;;;;;5014294;28;20040;-72
2022/06/07 13:53:22;;;;;;;1.77;1.10;;;;;;;;;;5014485;28;20336;-73
2022/06/07 13:56:07;;;;;;;2.67;1.10;;;;;;;;;;5010925;28;20046;-73
2022/06/07 13:58:35;;;;;;;2.35;2.05;;;;;;;;;;5014526;28;20083;-73
2022/06/07 14:01:12;;;;;;;5.03;3.33;;;;;;;;;;5014454;28;20038;-71
2022/06/07 14:03:40;;;;;;;9.55;3.80;;;;;;;;;;5014041;28;20124;-73
2022/06/07 14:06:18;;;;;;;6.55;3.60;;;;;;;;;;5013954;28;20430;-73
2022/06/07 14:08:43;;;;;;;7.57;3.42;;;;;;;;;;5014371;28;20048;-72
2022/06/07 14:11:08;;;;;;;5.70;3.43;;;;;;;;;;5013986;28;20029;-72
2022/06/07 14:13:33;;;;;;;7.60;3.80;;;;;;;;;;5013852;28;20644;-73
2022/06/07 14:15:59;;;;;;;3.67;3.27;;;;;;;;;;5013725;28;20026;-72
2022/06/07 14:18:24;;;;;;;4.90;3.15;;;;;;;;;;5013688;28;20294;-72
2022/06/07 14:20:50;;;;;;;4.88;3.03;;;;;;;;;;5013848;28;20072;-73
2022/06/07 14:23:16;;;;;;;4.50;3.60;;;;;;;;;;5013707;28;20022;-73
2022/06/07 14:25:42;;;;;;;4.45;3.55;;;;;;;;;;5013559;28;20060;-72
2022/06/07 14:28:20;;;;;;;7.70;3.45;;;;;;;;;;5013626;28;20077;-73
2022/06/07 14:30:47;;;;;;;6.20;3.28;;;;;;;;;;5013496;28;20037;-72
2022/06/07 14:33:14;;;;;;;6.68;3.33;;;;;;;;;;5013396;28;20080;-72
2022/06/07 14:35:39;;;;;;;3.67;3.25;;;;;;;;;;5013686;28;20053;-72
2022/06/07 14:38:05;;;;;;;5.13;3.30;;;;;;;;;;5013458;28;20033;-74
2022/06/07 14:40:36;;;;;;;4.35;3.30;;;;;;;;;;5013441;28;20255;-72
2022/06/07 14:43:01;;;;;;;4.32;3.08;;;;;;;;;;5013261;28;20021;-72
2022/06/07 14:45:36;;;;;;;4.03;3.30;;;;;;;;;;5013491;28;20189;-73
2022/06/07 14:48:05;;;;;;;3.42;3.10;;;;;;;;;;5013428;28;20255;-72
2022/06/07 14:50:31;;;;;;;6.03;3.63;;;;;;;;;;5013621;28;20025;-73
2022/06/07 14:52:56;;;;;;;5.30;3.15;;;;;;;;;;4995756;28;20121;-71
2022/06/07 14:55:24;;;;;;;4.32;3.15;;;;;;;;;;5013358;28;20022;-72
2022/06/07 14:57:49;;;;;;;5.53;3.30;;;;;;;;;;5013430;28;20026;-74
2022/06/07 15:00:18;;;;;;;4.45;3.33;;;;;;;;;;5013795;28;20034;-73
2022/06/07 15:02:45;;;;;;;5.22;2.65;;;;;;;;;;5013183;28;20570;-72
2022/06/07 15:05:30;;;;;;;6.05;3.20;;;;;;;;;;5013820;28;20049;-74
2022/06/07 15:07:58;;;;;;;4.53;2.75;;;;;;;;;;5013493;28;20022;-74
2022/06/07 15:10:27;;;;;;;5.13;3.00;;;;;;;;;;5013302;28;20525;-72
2022/06/07 15:12:53;;;;;;;3.85;3.00;;;;;;;;;;5013752;28;20498;-73
2022/06/07 15:15:19;;;;;;;7.75;2.78;;;;;;;;;;5013541;28;20112;-73
2022/06/07 15:17:54;;;;;;;9.55;3.10;;;;;;;;;;5013399;28;20117;-73
2022/06/07 15:20:32;;;;;;;5.63;2.67;;;;;;;;;;5013258;28;20079;-72
2022/06/07 15:22:59;;;;;;;4.68;2.60;;;;;;;;;;5013235;28;20052;-73